Time;durP1;ratioP1;P1;durP2;ratioP2;P2;SDS_P1;SDS_P2;PMS_P1;PMS_P2;Temp;Humidity;BMP_temperature;BMP_pressure;BME280_temperature;BME280_humidity;BME280_pressure;Samples;Min_cycle;Max_cycle;Signal;HPM_P1;HPM_P2
2023/06/18 00:02:17;;;;;;;;;;;18.30;38.00;;;14.34;66.19;95317.19;4943865;28;19961;-51
2023/06/18 00:04:43;;;;;;;;;;;18.30;38.20;;;14.31;65.55;95315.09;4948085;28;20396;-53
2023/06/18 00:07:08;;;;;;;;;;;18.20;38.20;;;14.29;65.78;95313.78;4950253;28;19910;-48
2023/06/18 00:09:34;;;;;;;;;;;18.20;38.40;;;14.23;66.11;95306.94;4954820;28;20003;-48
2023/06/18 00:12:00;;;;;;;;;;;18.10;38.40;;;14.17;66.36;95316.16;4950012;28;19917;-49
2023/06/18 00:14:25;;;;;;;;;;;18.10;38.60;;;14.14;66.15;95311.41;4943450;28;19910;-51
2023/06/18 00:16:52;;;;;;;;;;;18.00;38.60;;;14.11;66.97;95310.09;4946922;28;19910;-52
2023/06/18 00:19:18;;;;;;;;;;;18.00;38.70;;;14.04;67.10;95309.66;4954746;28;19910;-48
2023/06/18 00:21:44;;;;;;;;;;;18.00;38.90;;;14.01;65.58;95304.91;4954146;28;19914;-48
2023/06/18 00:24:10;;;;;;;;;;;17.90;38.90;;;14.01;66.36;95304.91;4943833;28;19953;-48
2023/06/18 00:26:36;;;;;;;;;;;17.90;39.00;;;13.97;66.13;95302.00;4954096;28;19965;-48
2023/06/18 00:29:02;;;;;;;;;;;17.90;39.10;;;13.93;66.39;95295.63;4952838;28;19918;-48
2023/06/18 00:31:28;;;;;;;;;;;17.90;39.20;;;13.96;66.88;95305.75;4954532;28;20336;-48
2023/06/18 00:33:53;;;;;;;;;;;17.90;39.30;;;13.98;66.57;95308.16;4953562;28;20000;-50
2023/06/18 00:36:20;;;;;;;;;;;17.90;39.30;;;13.92;67.84;95309.34;4940081;28;19970;-53
2023/06/18 00:38:46;;;;;;;;;;;17.80;39.40;;;13.87;68.68;95308.31;4952793;28;19910;-48
2023/06/18 00:41:13;;;;;;;;;;;17.80;39.40;;;13.77;69.10;95302.31;4940248;28;20365;-53
2023/06/18 00:43:39;;;;;;;;;;;17.70;39.40;;;13.74;69.00;95308.25;4941145;28;19914;-50
2023/06/18 00:46:05;;;;;;;;;;;17.70;39.60;;;13.66;68.48;95307.03;4941234;28;19910;-53
2023/06/18 00:48:32;;;;;;;;;;;17.60;40.10;;;13.56;70.10;95313.31;4944977;28;20005;-51
2023/06/18 00:50:59;;;;;;;;;;;17.60;39.80;;;13.54;69.01;95304.81;4951134;28;20400;-51
2023/06/18 00:53:26;;;;;;;;;;;17.60;39.90;;;13.52;69.63;95301.63;4940544;28;19917;-50
2023/06/18 00:55:52;;;;;;;;;;;17.50;40.00;;;13.49;69.62;95302.19;4952653;28;19996;-51
2023/06/18 00:58:23;;;;;;;;;;;17.50;40.10;;;13.45;69.62;95306.53;4940645;28;19925;-52
2023/06/18 01:00:50;;;;;;;;;;;17.40;40.20;;;13.49;69.38;95312.09;4952921;28;19965;-54
2023/06/18 01:03:20;;;;;;;;;;;17.40;40.30;;;13.49;69.39;95318.25;4953142;28;19917;-53
2023/06/18 01:05:51;;;;;;;;;;;17.40;40.40;;;13.53;69.80;95313.09;4932047;28;19921;-50
2023/06/18 01:08:23;;;;;;;;;;;17.40;40.50;;;13.54;68.68;95307.47;4949132;29;20005;-55
2023/06/18 01:11:00;;;;;;;;;;;17.40;40.50;;;13.55;68.80;95308.28;4943671;29;19914;-50
2023/06/18 01:13:30;;;;;;;;;;;17.40;41.30;;;13.55;68.53;95301.03;4951040;28;19910;-55
2023/06/18 01:16:03;;;;;;;;;;;17.40;40.70;;;13.56;69.10;95302.63;4937749;28;19910;-55
2023/06/18 01:18:35;;;;;;;;;;;17.40;40.80;;;13.56;68.77;95296.47;4951558;29;19910;-50
2023/06/18 01:21:06;;;;;;;;;;;17.40;40.90;;;13.56;68.89;95307.19;4951402;29;20001;-52
2023/06/18 01:24:03;;;;;;;;;;;17.50;41.00;;;13.55;68.35;95317.09;4945266;29;19933;-52
2023/06/18 01:26:32;;;;;;;;;;;17.40;40.90;;;13.56;68.10;95313.31;4942791;28;20298;-52
2023/06/18 01:28:58;;;;;;;;;;;17.40;41.60;;;13.51;68.83;95324.13;4929197;29;19910;-52
2023/06/18 01:31:25;;;;;;;;;;;17.40;41.00;;;13.48;69.82;95313.19;4950794;28;19922;-55
2023/06/18 01:33:53;;;;;;;;;;;17.50;41.00;;;13.47;69.80;95317.72;4952885;28;20420;-48
2023/06/18 01:36:53;;;;;;;;;;;17.50;41.10;;;13.42;69.32;95310.56;4938249;28;20049;-52
2023/06/18 01:39:38;;;;;;;;;;;17.40;41.10;;;13.43;69.54;95324.75;4959122;28;19925;-52
2023/06/18 01:42:20;;;;;;;;;;;17.40;41.20;;;13.41;70.29;95321.56;4943173;28;20332;-53
2023/06/18 01:45:03;;;;;;;;;;;17.40;41.30;;;13.29;71.45;95319.31;4951730;28;19960;-53
2023/06/18 01:47:30;;;;;;;;;;;17.30;41.30;;;13.29;71.63;95313.97;4946872;28;19916;-50
2023/06/18 01:50:01;;;;;;;;;;;17.30;41.30;;;13.25;71.66;95306.78;4956177;28;20339;-50
2023/06/18 01:52:34;;;;;;;;;;;17.30;41.60;;;13.24;71.55;95314.00;4946295;28;19921;-48
2023/06/18 01:55:03;;;;;;;;;;;17.20;41.60;;;13.19;71.82;95309.53;4942538;28;19911;-50
2023/06/18 01:57:33;;;;;;;;;;;17.20;41.70;;;13.15;72.48;95316.50;4939577;28;19917;-50
2023/06/18 01:59:59;;;;;;;;;;;17.20;41.80;;;13.14;72.13;95317.59;4944710;28;19997;-47
2023/06/18 02:02:25;;;;;;;;;;;17.10;41.80;;;13.08;73.24;95305.38;4956501;28;20013;-48
2023/06/18 02:04:51;;;;;;;;;;;17.10;41.80;;;13.06;73.55;95309.41;4949287;28;19910;-48
2023/06/18 02:07:17;;;;;;;;;;;17.10;41.90;;;13.02;73.69;95313.75;4956174;28;19921;-50
2023/06/18 02:09:43;;;;;;;;;;;17.00;42.00;;;12.94;73.72;95309.81;4956153;28;19910;-53
2023/06/18 02:12:09;;;;;;;;;;;16.90;42.10;;;12.81;74.68;95316.66;4944570;28;19910;-50
2023/06/18 02:14:34;;;;;;;;;;;16.90;42.20;;;12.75;75.63;95315.09;4955463;28;19914;-48
2023/06/18 02:17:01;;;;;;;;;;;16.90;42.30;;;12.77;75.87;95318.31;4942945;28;19921;-51
2023/06/18 02:19:27;;;;;;;;;;;16.80;42.40;;;12.77;74.97;95318.31;4956029;28;20292;-50
2023/06/18 02:21:53;;;;;;;;;;;16.80;42.50;;;12.74;75.12;95317.00;4955251;28;19914;-48
2023/06/18 02:24:19;;;;;;;;;;;16.80;42.60;;;12.71;75.91;95314.88;4950218;28;19969;-52
2023/06/18 02:26:45;;;;;;;;;;;16.70;42.70;;;12.69;75.58;95313.56;4970582;28;20270;-55
2023/06/18 02:29:11;;;;;;;;;;;16.70;42.80;;;12.65;75.64;95313.34;4946266;28;19917;-51
2023/06/18 02:31:36;;;;;;;;;;;16.70;42.90;;;12.62;75.36;95311.25;4955403;28;20345;-48
2023/06/18 02:34:02;;;;;;;;;;;16.60;43.00;;;12.58;75.67;95310.22;4954367;28;19909;-51
2023/06/18 02:36:28;;;;;;;;;;;16.60;43.00;;;12.57;75.49;95318.53;4943574;28;19918;-52
2023/06/18 02:38:55;;;;;;;;;;;16.50;43.10;;;12.53;75.37;95309.47;4955757;28;19910;-46
2023/06/18 02:41:21;;;;;;;;;;;16.50;43.20;;;12.49;75.31;95315.38;4946942;28;19914;-51
2023/06/18 02:43:50;;;;;;;;;;;16.50;43.90;;;12.46;76.18;95310.59;4944648;28;20004;-50
2023/06/18 02:46:18;;;;;;;;;;;16.50;43.40;;;12.45;76.64;95310.91;4952676;28;19910;-50
2023/06/18 02:48:44;;;;;;;;;;;16.50;43.50;;;12.44;76.79;95310.13;4945494;28;19953;-51
2023/06/18 02:51:10;;;;;;;;;;;16.50;43.60;;;12.42;76.99;95303.47;4954802;28;19963;-54
2023/06/18 02:53:36;;;;;;;;;;;16.40;43.70;;;12.39;76.87;95306.69;4950803;28;20060;-49
2023/06/18 02:56:03;;;;;;;;;;;16.40;43.80;;;12.39;76.65;95312.03;4954633;28;20014;-48
2023/06/18 02:58:28;;;;;;;;;;;16.40;43.80;;;12.36;76.17;95307.25;4951036;28;19910;-50
2023/06/18 03:00:59;;;;;;;;;;;16.40;43.80;;;12.36;76.23;95308.03;4939404;28;19910;-49
2023/06/18 03:03:26;;;;;;;;;;;16.40;44.00;;;12.36;75.25;95308.03;4955511;28;20273;-48
2023/06/18 03:05:53;;;;;;;;;;;16.40;44.10;;;12.37;75.69;95311.50;4943455;28;19917;-51
2023/06/18 03:08:19;;;;;;;;;;;16.40;44.20;;;12.37;76.28;95314.97;4955150;28;19914;-49
2023/06/18 03:10:46;;;;;;;;;;;16.40;44.10;;;12.36;76.82;95315.25;4951690;28;20329;-49
2023/06/18 03:13:13;;;;;;;;;;;16.40;44.20;;;12.35;76.88;95314.47;4955317;28;20005;-52
2023/06/18 03:15:39;;;;;;;;;;;16.40;44.30;;;12.33;76.08;95318.50;4955059;28;19917;-54
2023/06/18 03:18:05;;;;;;;;;;;16.40;44.40;;;12.33;76.14;95324.63;4927307;28;19914;-51
2023/06/18 03:20:32;;;;;;;;;;;16.30;44.40;;;12.33;76.48;95315.81;4936357;28;20008;-51
2023/06/18 03:22:58;;;;;;;;;;;16.40;44.50;;;12.29;77.29;95328.94;4946039;28;19915;-55
2023/06/18 03:25:24;;;;;;;;;;;16.40;44.50;;;12.19;77.90;95329.03;4952393;28;19920;-55
2023/06/18 03:27:52;;;;;;;;;;;16.30;44.40;;;12.14;78.29;95324.53;4954588;28;19922;-53
2023/06/18 03:30:18;;;;;;;;;;;16.30;44.50;;;12.17;78.42;95325.84;4946959;28;19914;-51
2023/06/18 03:32:44;;;;;;;;;;;16.30;44.50;;;12.16;77.68;95329.56;4954790;28;20369;-53
2023/06/18 03:35:10;;;;;;;;;;;16.20;44.50;;;12.09;78.46;95321.91;4942840;28;19917;-52
2023/06/18 03:37:36;;;;;;;;;;;16.20;44.60;;;12.11;77.26;95313.63;4954312;28;19910;-54
2023/06/18 03:40:04;;;;;;;;;;;16.20;44.70;;;12.17;77.30;95313.28;4952494;28;19914;-55
2023/06/18 03:42:30;;;;;;;;;;;16.20;44.70;;;12.20;76.27;95315.41;4928870;29;19921;-49
2023/06/18 03:44:55;;;;;;;;;;;16.20;44.80;;;12.32;75.79;95311.56;4952766;28;19910;-51
2023/06/18 03:47:22;;;;;;;;;;;16.20;44.90;;;12.41;74.75;95307.19;4942494;28;19913;-52
2023/06/18 03:49:48;;;;;;;;;;;16.30;44.90;;;12.45;76.53;95305.56;4952026;28;20422;-50
2023/06/18 03:52:13;;;;;;;;;;;16.30;44.90;;;12.47;74.77;95311.41;4951027;28;19914;-49
2023/06/18 03:54:39;;;;;;;;;;;16.40;45.60;;;12.49;75.19;95315.38;4952659;28;19910;-50
2023/06/18 03:57:05;;;;;;;;;;;16.40;44.90;;;12.49;74.66;95318.06;4954082;28;19917;-48
2023/06/18 03:59:31;;;;;;;;;;;16.40;44.90;;;12.52;74.96;95326.59;4958852;28;20000;-49
2023/06/18 04:01:58;;;;;;;;;;;16.50;44.90;;;12.53;74.72;95320.97;4946078;28;19940;-52
2023/06/18 04:04:23;;;;;;;;;;;16.50;44.90;;;12.57;75.24;95326.56;4950428;28;19922;-51
2023/06/18 04:06:51;;;;;;;;;;;16.60;44.90;;;12.54;75.86;95321.78;4945678;28;26620;-53
2023/06/18 04:09:17;;;;;;;;;;;16.60;44.90;;;12.56;75.84;95315.03;4953161;28;19910;-52
2023/06/18 04:11:43;;;;;;;;;;;16.60;44.80;;;12.59;76.13;95311.81;4950462;28;20021;-51
2023/06/18 04:14:09;;;;;;;;;;;16.70;44.90;;;12.65;75.92;95310.69;4968660;28;20013;-51
2023/06/18 04:16:35;;;;;;;;;;;16.70;44.90;;;12.74;75.30;95306.31;4948123;28;19975;-52
2023/06/18 04:19:01;;;;;;;;;;;16.80;44.90;;;12.82;75.28;95314.78;4952510;28;19910;-52
2023/06/18 04:21:27;;;;;;;;;;;16.80;44.90;;;12.89;75.37;95310.69;4953318;28;19972;-51
2023/06/18 04:23:54;;;;;;;;;;;16.80;44.90;;;12.93;76.06;95311.69;4942569;28;19914;-49
2023/06/18 04:26:21;;;;;;;;;;;16.90;45.50;;;13.08;75.46;95310.72;4966092;28;19918;-56
2023/06/18 04:28:47;;;;;;;;;;;17.00;44.90;;;13.29;75.04;95313.19;4943897;28;20393;-52
2023/06/18 04:31:12;;;;;;;;;;;17.10;44.90;;;13.47;73.38;95316.94;4934975;29;19917;-53
2023/06/18 04:33:38;;;;;;;;;;;17.20;44.90;;;13.67;72.89;95315.88;4948141;28;19949;-57
2023/06/18 04:36:04;;;;;;;;;;;17.30;44.90;;;13.84;72.28;95303.53;4936263;28;19979;-50
2023/06/18 04:38:30;;;;;;;;;;;17.50;44.80;;;14.02;72.11;95309.94;4947093;28;20017;-48
2023/06/18 04:40:56;;;;;;;;;;;17.70;44.80;;;14.22;71.18;95308.03;4952816;28;20487;-46
2023/06/18 04:43:22;;;;;;;;;;;17.90;45.30;;;14.41;70.25;95305.28;4951670;28;19916;-50
2023/06/18 04:45:48;;;;;;;;;;;18.00;44.60;;;14.62;70.25;95308.44;4941044;28;20289;-52
2023/06/18 04:48:14;;;;;;;;;;;18.20;44.60;;;14.81;69.59;95303.78;4948710;28;19916;-49
2023/06/18 04:50:41;;;;;;;;;;;18.40;44.50;;;15.02;69.36;95304.19;4953860;28;19910;-47
2023/06/18 04:53:07;;;;;;;;;;;18.60;44.40;;;15.20;69.40;95302.47;4945257;28;19921;-55
2023/06/18 04:55:32;;;;;;;;;;;18.80;44.30;;;15.39;68.88;95303.13;4954033;28;20369;-48
2023/06/18 04:57:58;;;;;;;;;;;18.90;44.80;;;15.61;68.48;95310.44;4954093;28;19910;-49
2023/06/18 05:00:24;;;;;;;;;;;19.20;44.10;;;15.81;67.64;95308.41;4938808;28;20416;-55
2023/06/18 05:02:50;;;;;;;;;;;19.40;44.00;;;16.04;67.83;95306.53;4947411;28;19936;-50
2023/06/18 05:05:16;;;;;;;;;;;19.60;43.90;;;16.27;66.97;95307.31;4949839;28;19918;-54
2023/06/18 05:07:43;;;;;;;;;;;19.90;43.80;;;16.48;66.18;95304.91;4953727;28;20293;-56
2023/06/18 05:10:09;;;;;;;;;;;20.10;43.70;;;16.68;66.70;95306.28;4952786;28;19941;-53
2023/06/18 05:12:35;;;;;;;;;;;20.40;43.50;;;16.87;65.58;95310.34;4947513;29;19910;-57
2023/06/18 05:15:01;;;;;;;;;;;20.60;43.40;;;17.12;64.69;95302.66;4953791;28;20304;-51
2023/06/18 05:17:27;;;;;;;;;;;20.80;43.20;;;17.35;64.66;95316.81;4942298;28;20029;-54
2023/06/18 05:19:53;;;;;;;;;;;21.10;43.10;;;17.60;64.59;95309.88;4951259;28;19997;-55
2023/06/18 05:22:19;;;;;;;;;;;21.40;43.00;;;17.80;63.29;95303.13;4962759;28;19921;-54
2023/06/18 05:24:45;;;;;;;;;;;21.70;42.80;;;18.02;62.72;95315.63;4957318;28;19910;-54
2023/06/18 05:27:11;;;;;;;;;;;21.90;42.60;;;18.20;60.95;95317.19;4952865;28;20013;-54
2023/06/18 05:29:36;;;;;;;;;;;22.20;42.40;;;18.34;60.28;95317.00;4941972;28;19925;-54
2023/06/18 05:32:03;;;;;;;;;;;22.50;42.30;;;18.61;61.83;95313.13;4957677;28;20000;-55
2023/06/18 05:34:29;;;;;;;;;;;22.70;42.00;;;18.80;60.40;95310.06;4953730;28;20296;-51
2023/06/18 05:36:54;;;;;;;;;;;23.00;41.90;;;19.02;60.32;95309.06;4946516;28;19910;-52
2023/06/18 05:39:20;;;;;;;;;;;23.30;41.80;;;19.30;59.62;95312.06;4957645;28;19910;-51
2023/06/18 05:41:48;;;;;;;;;;;23.50;41.50;;;19.59;59.00;95316.69;4950407;28;20355;-53
2023/06/18 05:44:13;;;;;;;;;;;23.90;41.40;;;19.88;57.62;95307.75;4957234;28;19910;-55
2023/06/18 05:46:39;;;;;;;;;;;24.20;41.20;;;20.17;56.62;95307.97;4951052;28;19965;-55
2023/06/18 05:49:05;;;;;;;;;;;24.40;40.80;;;20.43;55.09;95308.53;4967488;28;19937;-55
2023/06/18 05:51:31;;;;;;;;;;;24.80;40.60;;;20.71;52.92;95308.72;4957153;28;19914;-52
2023/06/18 05:53:56;;;;;;;;;;;25.10;40.40;;;20.97;49.10;95319.25;4950749;28;19919;-53
2023/06/18 05:56:22;;;;;;;;;;;25.30;40.60;;;21.19;47.17;95320.75;4947231;28;19961;-53
2023/06/18 05:58:48;;;;;;;;;;;25.70;39.70;;;21.46;47.17;95318.50;4931181;28;19911;-50
2023/06/18 06:01:14;;;;;;;;;;;26.00;39.30;;;21.70;45.55;95328.53;4944437;28;19925;-47
2023/06/18 06:03:40;;;;;;;;;;;26.30;39.00;;;21.84;44.63;95331.66;4939173;28;19914;-53
2023/06/18 06:06:06;;;;;;;;;;;26.60;38.50;;;21.97;45.46;95324.28;4946851;28;19917;-54
2023/06/18 06:08:32;;;;;;;;;;;26.90;38.20;;;22.09;43.96;95331.56;4956991;28;20329;-56
2023/06/18 06:10:58;;;;;;;;;;;27.20;37.80;;;22.25;41.77;95327.03;4941393;28;19918;-55
2023/06/18 06:13:24;;;;;;;;;;;27.40;37.30;;;22.48;43.85;95331.91;4946965;28;20285;-55
2023/06/18 06:15:50;;;;;;;;;;;27.60;37.00;;;22.61;42.96;95336.16;4956961;28;19910;-54
2023/06/18 06:18:16;;;;;;;;;;;27.90;36.80;;;22.89;41.63;95332.59;4944109;28;19960;-55
2023/06/18 06:20:41;;;;;;;;;;;28.10;36.40;;;23.06;41.60;95333.09;4943378;28;19914;-55
2023/06/18 06:23:07;;;;;;;;;;;28.30;36.10;;;23.16;40.70;95333.66;4941336;28;19918;-55
2023/06/18 06:25:33;;;;;;;;;;;28.50;35.70;;;23.31;39.04;95333.66;4956486;28;20008;-54
2023/06/18 06:27:59;;;;;;;;;;;28.70;36.00;;;23.53;38.85;95334.97;4948227;28;19910;-58
2023/06/18 06:30:25;;;;;;;;;;;28.80;35.00;;;23.77;38.90;95331.25;4956919;28;19919;-56
2023/06/18 06:32:51;;;;;;;;;;;28.90;34.80;;;23.95;38.12;95334.38;4949264;28;19946;-56
2023/06/18 06:35:17;;;;;;;;;;;29.10;34.60;;;24.05;38.38;95329.50;4938286;28;19978;-56
2023/06/18 06:37:43;;;;;;;;;;;29.30;34.30;;;24.09;38.34;95325.72;4931039;28;19910;-54
2023/06/18 06:40:09;;;;;;;;;;;29.50;34.10;;;24.34;37.60;95333.59;4941320;28;19914;-54
2023/06/18 06:42:35;;;;;;;;;;;29.60;33.80;;;24.59;39.00;95329.44;4956255;28;19920;-56
2023/06/18 06:45:02;;;;;;;;;;;29.80;33.60;;;24.71;37.33;95333.94;4956184;28;20332;-56
2023/06/18 06:47:28;;;;;;;;;;;30.00;34.10;;;24.78;36.50;95328.63;4946523;28;19919;-52
2023/06/18 06:49:54;;;;;;;;;;;30.30;33.10;;;24.99;37.74;95328.22;4949908;28;20018;-55
2023/06/18 06:52:20;;;;;;;;;;;30.50;32.80;;;25.15;36.77;95337.06;4952574;28;19916;-53
2023/06/18 06:54:47;;;;;;;;;;;30.60;32.60;;;25.43;35.83;95333.25;4936249;28;20001;-54
2023/06/18 06:57:13;;;;;;;;;;;30.80;32.30;;;25.68;36.07;95338.28;4956055;28;20292;-55
2023/06/18 06:59:38;;;;;;;;;;;31.00;32.80;;;25.95;34.87;95334.41;4942998;28;19914;-56
2023/06/18 07:02:05;;;;;;;;;;;31.20;32.00;;;26.14;35.02;95338.97;4947544;28;20420;-57
2023/06/18 07:04:31;;;;;;;;;;;31.50;31.80;;;26.37;34.79;95335.31;4940741;28;20300;-53
2023/06/18 07:06:56;;;;;;;;;;;31.80;31.60;;;26.56;34.29;95334.41;4950278;28;19914;-52
2023/06/18 07:09:22;;;;;;;;;;;32.00;31.30;;;26.80;34.97;95333.88;4931622;28;19915;-53
2023/06/18 07:11:48;;;;;;;;;;;32.30;31.10;;;27.05;33.16;95341.53;4950956;28;19916;-54
2023/06/18 07:14:15;;;;;;;;;;;32.60;30.80;;;27.20;33.26;95343.25;4954334;28;19964;-56
2023/06/18 07:16:40;;;;;;;;;;;32.80;30.60;;;27.30;32.88;95341.78;4934927;28;20429;-51
2023/06/18 07:19:06;;;;;;;;;;;33.00;30.30;;;27.55;33.07;95339.25;4963837;28;20000;-53
2023/06/18 07:21:32;;;;;;;;;;;33.30;30.10;;;27.96;33.76;95344.63;4955388;28;20012;-56
2023/06/18 07:23:58;;;;;;;;;;;33.50;30.00;;;28.22;32.34;95349.84;4947953;28;19965;-55
2023/06/18 07:26:24;;;;;;;;;;;33.80;29.90;;;28.45;32.87;95352.31;4936912;28;19968;-51
2023/06/18 07:28:50;;;;;;;;;;;34.10;29.70;;;28.59;31.34;95352.38;4949304;28;19910;-56
2023/06/18 07:31:15;;;;;;;;;;;34.30;29.50;;;28.63;31.07;95357.84;4949989;28;20001;-56
2023/06/18 07:33:41;;;;;;;;;;;34.60;29.30;;;28.68;30.19;95357.50;4947808;28;20005;-55
2023/06/18 07:36:07;;;;;;;;;;;34.90;29.10;;;28.38;30.64;95350.28;4943149;28;20389;-57
2023/06/18 07:38:33;;;;;;;;;;;34.90;28.80;;;28.52;31.20;95349.63;4952817;28;19986;-53
2023/06/18 07:40:58;;;;;;;;;;;35.00;28.60;;;28.55;30.69;95350.78;4950568;28;19910;-57
2023/06/18 07:43:24;;;;;;;;;;;35.10;28.50;;;28.14;30.74;95351.75;4955243;28;19942;-57
2023/06/18 07:45:50;;;;;;;;;;;35.10;28.30;;;28.41;30.48;95359.72;4955282;28;19910;-57
2023/06/18 07:48:16;;;;;;;;;;;35.10;28.20;;;28.74;29.92;95341.47;4963603;28;20391;-56
2023/06/18 07:50:42;;;;;;;;;;;35.10;28.10;;;28.98;29.75;95346.19;4955044;28;19910;-56
2023/06/18 07:53:07;;;;;;;;;;;35.30;28.00;;;29.17;31.49;95355.25;4946275;28;19945;-55
2023/06/18 07:55:33;;;;;;;;;;;35.40;27.90;;;29.41;30.64;95343.53;4953221;28;19944;-57
2023/06/18 07:57:59;;;;;;;;;;;35.60;27.80;;;29.56;29.27;95354.50;4943532;28;20498;-57
2023/06/18 08:00:24;;;;;;;;;;;35.80;27.70;;;29.99;29.73;95347.00;4939634;28;19917;-57
2023/06/18 08:02:51;;;;;;;;;;;35.90;27.50;;;30.36;28.18;95348.50;4954829;28;19968;-56
2023/06/18 08:05:17;;;;;;;;;;;36.10;27.40;;;30.63;28.96;95346.81;4940533;28;19972;-57
2023/06/18 08:07:43;;;;;;;;;;;36.40;27.20;;;31.06;28.18;95354.84;4935577;29;20361;-56
2023/06/18 08:10:09;;;;;;;;;;;36.70;27.30;;;31.26;27.66;95344.09;4951670;28;19916;-56
2023/06/18 08:12:35;;;;;;;;;;;37.00;27.10;;;31.34;26.84;95350.38;4947229;28;20403;-57
2023/06/18 08:15:00;;;;;;;;;;;37.30;26.90;;;31.45;26.86;95351.06;4945244;28;19916;-56
2023/06/18 08:17:26;;;;;;;;;;;37.40;26.70;;;31.46;26.87;95349.09;4931931;28;19974;-56
2023/06/18 08:19:52;;;;;;;;;;;37.60;26.50;;;31.10;27.00;95350.09;4945342;28;19918;-53
2023/06/18 08:22:18;;;;;;;;;;;37.70;26.30;;;31.43;27.68;95356.16;4941319;28;19915;-55
2023/06/18 08:24:44;;;;;;;;;;;37.70;26.10;;;31.80;26.60;95344.44;4946933;28;20343;-56
2023/06/18 08:27:15;;;;;;;;;;;37.80;26.00;;;31.58;26.34;95354.88;4954093;28;19972;-56
2023/06/18 08:29:40;;;;;;;;;;;37.90;25.90;;;31.86;26.00;95346.78;4939964;28;20356;-56
2023/06/18 08:32:07;;;;;;;;;;;38.10;25.80;;;31.92;26.15;95351.44;4945108;28;19942;-58
2023/06/18 08:34:36;;;;;;;;;;;38.20;25.70;;;31.65;26.30;95348.53;4948281;28;19910;-56
2023/06/18 08:37:03;;;;;;;;;;;38.30;25.60;;;31.75;26.00;95353.16;4949467;28;20271;-54
2023/06/18 08:39:29;;;;;;;;;;;38.40;25.50;;;32.18;26.06;95347.22;4935809;28;20341;-56
2023/06/18 08:42:02;;;;;;;;;;;38.60;25.40;;;32.46;25.30;95339.88;4941096;28;19960;-57
2023/06/18 08:44:33;;;;;;;;;;;38.70;25.30;;;32.77;24.85;95346.16;4952164;28;20026;-57
2023/06/18 08:47:03;;;;;;;;;;;38.90;25.20;;;33.07;25.07;95341.84;4936136;28;19910;-56
2023/06/18 08:49:33;;;;;;;;;;;39.00;25.00;;;33.46;24.24;95326.66;4939700;28;19910;-54
2023/06/18 08:52:05;;;;;;;;;;;39.20;25.00;;;33.77;24.67;95328.13;4938532;28;19915;-56
2023/06/18 08:54:37;;;;;;;;;;;39.50;24.90;;;33.57;24.25;95322.56;4912838;28;19910;-57
2023/06/18 08:57:26;;;;;;;;;;;39.80;24.70;;;33.72;23.85;95325.84;4949056;28;19914;-58
2023/06/18 08:59:54;;;;;;;;;;;40.10;24.50;;;33.66;23.91;95322.00;4948549;28;19910;-57
2023/06/18 09:02:21;;;;;;;;;;;40.10;24.10;;;33.75;23.82;95326.97;4952709;28;20024;-57
2023/06/18 09:04:47;;;;;;;;;;;40.10;24.00;;;33.84;23.78;95318.91;4946060;28;19914;-57
2023/06/18 09:07:13;;;;;;;;;;;40.20;24.00;;;34.20;23.37;95319.06;4951981;28;19910;-58
2023/06/18 09:09:39;;;;;;;;;;;40.30;23.90;;;34.52;22.96;95328.69;4953964;28;19910;-58
2023/06/18 09:12:05;;;;;;;;;;;40.50;23.90;;;34.88;22.94;95323.22;4941473;28;19910;-57
2023/06/18 09:14:31;;;;;;;;;;;40.60;23.80;;;35.10;22.81;95317.22;4953920;29;20395;-57
2023/06/18 09:16:57;;;;;;;;;;;40.80;23.70;;;35.30;22.62;95317.94;4944016;28;19915;-58
2023/06/18 09:19:24;;;;;;;;;;;40.90;23.60;;;35.12;22.15;95310.03;4944689;29;19954;-57
2023/06/18 09:21:51;;;;;;;;;;;41.00;23.40;;;35.17;22.37;95311.53;4941881;29;20034;-56
2023/06/18 09:24:20;;;;;;;;;;;41.00;23.20;;;35.39;22.59;95314.56;4935649;29;20393;-55
2023/06/18 09:26:48;;;;;;;;;;;41.10;23.20;;;35.76;22.50;95307.72;4937338;29;19918;-57
2023/06/18 09:29:14;;;;;;;;;;;41.30;23.20;;;35.79;21.40;95308.81;4942426;28;19918;-56
2023/06/18 09:31:47;;;;;;;;;;;41.50;23.10;;;35.63;21.21;95304.88;4934531;29;20297;-57
2023/06/18 09:34:18;;;;;;;;;;;41.60;23.00;;;35.61;21.87;95307.31;4952685;28;19911;-57
2023/06/18 09:36:46;;;;;;;;;;;41.70;22.80;;;35.84;21.53;95298.00;4941151;29;20357;-57
2023/06/18 09:39:24;;;;;;;;;;;41.80;22.80;;;36.01;22.17;95287.66;4953424;28;19910;-57
2023/06/18 09:41:52;;;;;;;;;;;42.00;22.70;;;36.20;21.18;95290.72;4948238;28;19921;-57
2023/06/18 09:44:21;;;;;;;;;;;42.10;22.60;;;36.54;22.16;95290.97;4952170;28;19910;-57
2023/06/18 09:46:59;;;;;;;;;;;42.20;22.50;;;36.62;20.57;95294.28;4962695;28;19975;-57
2023/06/18 09:49:27;;;;;;;;;;;42.40;22.30;;;37.04;20.78;95285.91;4945407;28;19961;-57
2023/06/18 09:51:54;;;;;;;;;;;42.60;22.30;;;37.18;20.04;95285.47;4951047;28;20428;-52
2023/06/18 09:54:21;;;;;;;;;;;42.70;22.20;;;37.54;19.73;95289.84;4947128;29;20028;-54
2023/06/18 09:56:59;;;;;;;;;;;42.90;22.10;;;37.74;19.43;95286.81;4951880;28;19910;-58
2023/06/18 09:59:27;;;;;;;;;;;43.10;22.00;;;37.46;19.45;95291.34;4949379;28;20436;-55
2023/06/18 10:01:54;;;;;;;;;;;43.30;21.90;;;37.54;19.38;95295.41;4953312;28;20298;-58
2023/06/18 10:04:21;;;;;;;;;;;43.40;22.30;;;37.79;18.95;95291.00;4951966;28;20008;-54
2023/06/18 10:06:54;;;;;;;;;;;43.50;21.60;;;37.76;19.00;95291.91;4949054;28;19920;-56
2023/06/18 10:09:22;;;;;;;;;;;43.70;21.60;;;37.64;19.00;95296.28;4957456;28;19933;-58
2023/06/18 10:11:51;;;;;;;;;;;43.80;21.50;;;37.76;19.88;95289.91;4944252;28;19958;-56
2023/06/18 10:14:25;;;;;;;;;;;43.90;21.40;;;37.83;18.70;95289.69;4938846;28;20364;-56
2023/06/18 10:16:54;;;;;;;;;;;44.10;21.30;;;37.81;18.87;95281.00;4954014;28;20309;-54
2023/06/18 10:19:29;;;;;;;;;;;44.10;21.20;;;37.93;18.55;95283.00;4955712;28;20358;-57
2023/06/18 10:22:05;;;;;;;;;;;44.30;21.00;;;37.98;18.63;95278.84;4955204;28;19918;-57
2023/06/18 10:24:42;;;;;;;;;;;44.40;20.90;;;38.16;18.62;95272.66;4940818;28;19957;-56
2023/06/18 10:27:08;;;;;;;;;;;44.50;20.80;;;38.37;18.50;95271.88;4954143;23;20311;-47
2023/06/18 10:29:35;;;;;;;;;;;44.80;20.70;;;38.74;18.53;95268.56;4943616;28;20413;-46
2023/06/18 10:32:03;;;;;;;;;;;45.10;20.70;;;39.02;18.26;95272.22;4942920;28;19964;-47
2023/06/18 10:34:32;;;;;;;;;;;45.40;20.50;;;39.16;17.28;95271.66;4964251;28;19946;-47
2023/06/18 10:37:01;;;;;;;;;;;45.70;20.40;;;38.95;18.28;95264.16;4930027;28;19915;-49
2023/06/18 10:39:29;;;;;;;;;;;46.10;20.30;;;38.64;18.79;95259.38;4932503;29;19911;-48
2023/06/18 10:42:00;;;;;;;;;;;46.30;20.20;;;37.43;18.75;95259.66;4942095;28;19918;-50
2023/06/18 10:44:48;;;;;;;;;;;46.30;20.00;;;36.89;19.97;95252.25;4934415;28;19933;-48
2023/06/18 10:47:28;;;;;;;;;;;46.00;19.90;;;37.31;18.41;95260.44;4923964;28;19911;-48
2023/06/18 10:50:00;;;;;;;;;;;45.70;19.80;;;37.48;18.88;95244.44;4936539;29;19911;-49
2023/06/18 10:52:30;;;;;;;;;;;45.60;19.90;;;37.39;18.96;95250.66;4932894;29;19910;-48
2023/06/18 10:55:09;;;;;;;;;;;45.50;19.90;;;37.42;18.94;95241.44;4921054;29;20322;-51
2023/06/18 10:58:03;;;;;;;;;;;45.30;19.90;;;37.15;19.66;95247.47;4924814;29;19974;-47
2023/06/18 11:00:46;;;;;;;;;;;45.00;19.90;;;37.55;19.51;95243.44;4915538;29;19917;-49
2023/06/18 11:03:17;;;;;;;;;;;44.80;19.90;;;37.67;19.85;95240.63;4920367;29;19921;-51
2023/06/18 11:05:49;;;;;;;;;;;44.90;19.80;;;37.66;19.41;95239.03;4913520;29;19915;-49
2023/06/18 11:08:25;;;;;;;;;;;45.10;19.80;;;37.24;19.36;95235.69;4927642;29;19911;-46
2023/06/18 11:11:07;;;;;;;;;;;45.20;19.70;;;37.52;18.63;95225.66;4922888;29;19911;-51
2023/06/18 11:13:39;;;;;;;;;;;45.50;19.60;;;37.73;20.16;95224.91;4924070;29;19973;-48
2023/06/18 11:16:11;;;;;;;;;;;45.50;19.60;;;37.93;19.20;95227.41;4928814;29;19915;-50
2023/06/18 11:18:41;;;;;;;;;;;45.70;19.60;;;38.13;18.86;95229.84;4927110;29;20301;-49
2023/06/18 11:21:18;;;;;;;;;;;45.90;19.50;;;37.85;18.57;95217.72;4943156;28;19925;-48